Kaministiqua — CFN4612 — position and weather

sailwx.info

Track history (hours):
 
Tides and Currents Weather Stations Pressure Air Temp Water Temp Dewpoint Dewpoint Depression Visibility Wind Speed Wind Dir Waves Ship Positions

Kaministiqua

Last reported at 2016-Jun-27 10:34 UTC. Time now 2016-Jun-27 11:24 UTC.
Position N 45°18' W 073°55'.

Length 223 m; draft 7.3 m.

Type: Cargo ship. MMSI: 316009457.

Date/timePositionNaut miles runAvg speedWind from/ knotsBaromVisibWave heightAir tempDewpointWater temp
2016-Jun-27 10:34N 45°18' W 073°55'1 0.6
2016-Jun-27 09:34N 45°19' W 073°55'2 1.6
2016-Jun-27 08:34N 45°20' W 073°54'8 8.3
2016-Jun-27 07:34N 45°24' W 073°43'6 5.4
2016-Jun-27 06:30N 45°24' W 073°35'1 1.6
2016-Jun-27 05:33N 45°24' W 073°33'10 2.0
2016-Jun-27 00:33N 45°34' W 073°30'5 5.4
2016-Jun-26 23:34N 45°39' W 073°28'6 6.1
2016-Jun-26 22:33N 45°45' W 073°24'9 8.7
2016-Jun-26 21:34N 45°51' W 073°16'8 8.5
2016-Jun-26 20:34N 45°59' W 073°11'5 4.7
2016-Jun-26 19:33N 46°03' W 073°07'0 0.0
2016-Jun-26 18:34N 46°03' W 073°07'0 0.0
2016-Jun-26 17:33N 46°03' W 073°07'0 0.0
2016-Jun-26 16:34N 46°03' W 073°07'0 0.0
2016-Jun-26 15:33N 46°03' W 073°07'0 0.0
2016-Jun-26 14:34N 46°03' W 073°07'0 0.0
2016-Jun-26 13:34N 46°03' W 073°07'0 0.0
2016-Jun-26 12:34N 46°03' W 073°07'0 0.0
2016-Jun-26 11:34N 46°03' W 073°07'0 0.0
2016-Jun-26 10:34N 46°03' W 073°07'0 0.0
2016-Jun-26 09:33N 46°03' W 073°07'0 0.0
2016-Jun-26 08:33N 46°03' W 073°07'0 0.0
2016-Jun-26 07:33N 46°03' W 073°07'0 0.0
2016-Jun-26 06:34N 46°03' W 073°07'0 0.0
2016-Jun-26 05:33N 46°03' W 073°07'0 0.0
2016-Jun-26 04:34N 46°03' W 073°07'0 0.0
2016-Jun-26 03:34N 46°03' W 073°07'0 0.0
2016-Jun-26 02:33N 46°03' W 073°07'0 0.0
2016-Jun-26 01:34N 46°03' W 073°07'0 0.0
2016-Jun-26 00:34N 46°03' W 073°07'0 0.0
2016-Jun-25 23:33N 46°03' W 073°07'0 0.0
2016-Jun-25 22:33N 46°03' W 073°07'0 0.0
2016-Jun-25 21:33N 46°03' W 073°07'0 0.0
2016-Jun-25 20:33N 46°03' W 073°07'0 0.0
2016-Jun-25 19:34N 46°03' W 073°07'0 0.0
2016-Jun-25 18:33N 46°03' W 073°07'0 0.0
2016-Jun-25 17:34N 46°03' W 073°07'0 0.0
2016-Jun-25 16:34N 46°03' W 073°07'0 0.0
2016-Jun-25 15:33N 46°03' W 073°07'0 0.0
2016-Jun-25 14:34N 46°03' W 073°07'0 0.0
2016-Jun-25 13:33N 46°03' W 073°07'0 0.0
2016-Jun-25 12:34N 46°03' W 073°07'0 0.0
2016-Jun-25 11:34N 46°03' W 073°07'0 0.0
2016-Jun-25 10:33N 46°03' W 073°07'0 0.0
2016-Jun-25 09:34N 46°03' W 073°07'0 0.0
2016-Jun-25 08:34N 46°03' W 073°07'0 0.0
2016-Jun-25 07:34N 46°03' W 073°07'0 0.0
2016-Jun-25 06:34N 46°03' W 073°07'0 0.0
2016-Jun-25 05:33N 46°03' W 073°07'0 0.0
2016-Jun-25 04:33N 46°03' W 073°07'0 0.0
2016-Jun-25 03:33N 46°03' W 073°07'0 0.0
2016-Jun-25 02:33N 46°03' W 073°07'0 0.0
2016-Jun-25 01:34N 46°03' W 073°07'0 0.0
2016-Jun-25 00:33N 46°03' W 073°07'0 0.0
2016-Jun-24 23:33N 46°03' W 073°07'0 0.0
2016-Jun-24 22:33N 46°03' W 073°07'0 0.0
2016-Jun-24 21:34N 46°03' W 073°07'0 0.0
2016-Jun-24 20:34N 46°03' W 073°07'0 0.0
2016-Jun-24 19:33N 46°03' W 073°07'0 0.0
2016-Jun-24 18:34N 46°03' W 073°07'0 0.0
2016-Jun-24 17:33N 46°03' W 073°07'0 0.0
2016-Jun-24 16:33N 46°03' W 073°07'0 0.0
2016-Jun-24 15:34N 46°03' W 073°07'0 0.0
2016-Jun-24 14:33N 46°03' W 073°07'0 0.0
2016-Jun-24 13:33N 46°03' W 073°07'0 0.0
2016-Jun-24 12:34N 46°03' W 073°07'0 0.0
2016-Jun-24 11:33N 46°03' W 073°07'0 0.0
2016-Jun-24 10:33N 46°03' W 073°07'0 0.0
2016-Jun-24 09:33N 46°03' W 073°07'0 0.0
2016-Jun-24 08:33N 46°03' W 073°07'0 0.0
2016-Jun-24 07:34N 46°03' W 073°07'0 0.0
2016-Jun-24 04:34N 46°03' W 073°07'0 0.0
2016-Jun-24 03:34N 46°03' W 073°07'0 0.0
2016-Jun-24 02:33N 46°03' W 073°07'0 0.0
2016-Jun-24 01:33N 46°03' W 073°07'0 0.0
2016-Jun-24 00:33N 46°03' W 073°07'3 2.6
2016-Jun-23 23:34N 46°02' W 073°10'1212.0
2016-Jun-23 22:33N 45°51' W 073°17'1212.5
2016-Jun-23 21:34N 45°40' W 073°27'13 4.4
2016-Jun-23 18:32N 45°27' W 073°30'4 3.8
2016-Jun-23 17:30N 45°24' W 073°34'3 2.0
2016-Jun-23 16:13N 45°24' W 073°38'4 5.6
2016-Jun-23 15:33N 45°25' W 073°43'10 9.9
2016-Jun-23 14:33N 45°19' W 073°55'1 1.1
2016-Jun-23 13:33N 45°18' W 073°56'2 1.4
2016-Jun-23 12:26N 45°17' W 073°57'4 4.2
2016-Jun-23 11:32N 45°14' W 073°60'9 8.7
2016-Jun-23 10:31N 45°14' W 074°13'10910.9
2016-Jun-23 00:32N 44°11' W 076°19'0 0.1
2016-Jun-22 23:34N 44°11' W 076°19'1 0.8
2016-Jun-22 22:34N 44°11' W 076°19'0 0.5
2016-Jun-22 21:34N 44°11' W 076°19'0 0.4
2016-Jun-22 20:34N 44°11' W 076°19'7 7.1
2016-Jun-22 19:34N 44°06' W 076°24'13111.6
2016-Jun-22 08:21N 43°16' W 079°11'4 4.5
2016-Jun-22 07:34N 43°13' W 079°13'53 3.5
2016-Jun-21 16:33N 42°29' W 079°53'1212.0
2016-Jun-21 15:33N 42°24' W 080°08'  
Track history (hours):
 
Tides and Currents Weather Stations Pressure Air Temp Water Temp Dewpoint Dewpoint Depression Visibility Wind Speed Wind Dir Waves Ship Positions

Kaministiqua

Last reported at 2016-Jun-27 10:34 UTC. Time now 2016-Jun-27 11:24 UTC.
Position N 45°18' W 073°55'.

Length 223 m; draft 7.3 m.

Type: Cargo ship. MMSI: 316009457.

Date/timePositionNaut miles runAvg speedWind from/ knotsBaromVisibWave heightAir tempDewpointWater temp
2016-Jun-27 10:34N 45°18' W 073°55'1 0.6
2016-Jun-27 09:34N 45°19' W 073°55'2 1.6
2016-Jun-27 08:34N 45°20' W 073°54'8 8.3
2016-Jun-27 07:34N 45°24' W 073°43'6 5.4
2016-Jun-27 06:30N 45°24' W 073°35'1 1.6
2016-Jun-27 05:33N 45°24' W 073°33'10 2.0
2016-Jun-27 00:33N 45°34' W 073°30'5 5.4
2016-Jun-26 23:34N 45°39' W 073°28'6 6.1
2016-Jun-26 22:33N 45°45' W 073°24'9 8.7
2016-Jun-26 21:34N 45°51' W 073°16'8 8.5
2016-Jun-26 20:34N 45°59' W 073°11'5 4.7
2016-Jun-26 19:33N 46°03' W 073°07'0 0.0
2016-Jun-26 18:34N 46°03' W 073°07'0 0.0
2016-Jun-26 17:33N 46°03' W 073°07'0 0.0
2016-Jun-26 16:34N 46°03' W 073°07'0 0.0
2016-Jun-26 15:33N 46°03' W 073°07'0 0.0
2016-Jun-26 14:34N 46°03' W 073°07'0 0.0
2016-Jun-26 13:34N 46°03' W 073°07'0 0.0
2016-Jun-26 12:34N 46°03' W 073°07'0 0.0
2016-Jun-26 11:34N 46°03' W 073°07'0 0.0
2016-Jun-26 10:34N 46°03' W 073°07'0 0.0
2016-Jun-26 09:33N 46°03' W 073°07'0 0.0
2016-Jun-26 08:33N 46°03' W 073°07'0 0.0
2016-Jun-26 07:33N 46°03' W 073°07'0 0.0
2016-Jun-26 06:34N 46°03' W 073°07'0 0.0
2016-Jun-26 05:33N 46°03' W 073°07'0 0.0
2016-Jun-26 04:34N 46°03' W 073°07'0 0.0
2016-Jun-26 03:34N 46°03' W 073°07'0 0.0
2016-Jun-26 02:33N 46°03' W 073°07'0 0.0
2016-Jun-26 01:34N 46°03' W 073°07'0 0.0
2016-Jun-26 00:34N 46°03' W 073°07'0 0.0
2016-Jun-25 23:33N 46°03' W 073°07'0 0.0
2016-Jun-25 22:33N 46°03' W 073°07'0 0.0
2016-Jun-25 21:33N 46°03' W 073°07'0 0.0
2016-Jun-25 20:33N 46°03' W 073°07'0 0.0
2016-Jun-25 19:34N 46°03' W 073°07'0 0.0
2016-Jun-25 18:33N 46°03' W 073°07'0 0.0
2016-Jun-25 17:34N 46°03' W 073°07'0 0.0
2016-Jun-25 16:34N 46°03' W 073°07'0 0.0
2016-Jun-25 15:33N 46°03' W 073°07'0 0.0
2016-Jun-25 14:34N 46°03' W 073°07'0 0.0
2016-Jun-25 13:33N 46°03' W 073°07'0 0.0
2016-Jun-25 12:34N 46°03' W 073°07'0 0.0
2016-Jun-25 11:34N 46°03' W 073°07'0 0.0
2016-Jun-25 10:33N 46°03' W 073°07'0 0.0
2016-Jun-25 09:34N 46°03' W 073°07'0 0.0
2016-Jun-25 08:34N 46°03' W 073°07'0 0.0
2016-Jun-25 07:34N 46°03' W 073°07'0 0.0
2016-Jun-25 06:34N 46°03' W 073°07'0 0.0
2016-Jun-25 05:33N 46°03' W 073°07'0 0.0
2016-Jun-25 04:33N 46°03' W 073°07'0 0.0
2016-Jun-25 03:33N 46°03' W 073°07'0 0.0
2016-Jun-25 02:33N 46°03' W 073°07'0 0.0
2016-Jun-25 01:34N 46°03' W 073°07'0 0.0
2016-Jun-25 00:33N 46°03' W 073°07'0 0.0
2016-Jun-24 23:33N 46°03' W 073°07'0 0.0
2016-Jun-24 22:33N 46°03' W 073°07'0 0.0
2016-Jun-24 21:34N 46°03' W 073°07'0 0.0
2016-Jun-24 20:34N 46°03' W 073°07'0 0.0
2016-Jun-24 19:33N 46°03' W 073°07'0 0.0
2016-Jun-24 18:34N 46°03' W 073°07'0 0.0
2016-Jun-24 17:33N 46°03' W 073°07'0 0.0
2016-Jun-24 16:33N 46°03' W 073°07'0 0.0
2016-Jun-24 15:34N 46°03' W 073°07'0 0.0
2016-Jun-24 14:33N 46°03' W 073°07'0 0.0
2016-Jun-24 13:33N 46°03' W 073°07'0 0.0
2016-Jun-24 12:34N 46°03' W 073°07'0 0.0
2016-Jun-24 11:33N 46°03' W 073°07'0 0.0
2016-Jun-24 10:33N 46°03' W 073°07'0 0.0
2016-Jun-24 09:33N 46°03' W 073°07'0 0.0
2016-Jun-24 08:33N 46°03' W 073°07'0 0.0
2016-Jun-24 07:34N 46°03' W 073°07'0 0.0
2016-Jun-24 04:34N 46°03' W 073°07'0 0.0
2016-Jun-24 03:34N 46°03' W 073°07'0 0.0
2016-Jun-24 02:33N 46°03' W 073°07'0 0.0
2016-Jun-24 01:33N 46°03' W 073°07'0 0.0
2016-Jun-24 00:33N 46°03' W 073°07'3 2.6
2016-Jun-23 23:34N 46°02' W 073°10'1212.0
2016-Jun-23 22:33N 45°51' W 073°17'1212.5
2016-Jun-23 21:34N 45°40' W 073°27'13 4.4
2016-Jun-23 18:32N 45°27' W 073°30'4 3.8
2016-Jun-23 17:30N 45°24' W 073°34'3 2.0
2016-Jun-23 16:13N 45°24' W 073°38'4 5.6
2016-Jun-23 15:33N 45°25' W 073°43'10 9.9
2016-Jun-23 14:33N 45°19' W 073°55'1 1.1
2016-Jun-23 13:33N 45°18' W 073°56'2 1.4
2016-Jun-23 12:26N 45°17' W 073°57'4 4.2
2016-Jun-23 11:32N 45°14' W 073°60'9 8.7
2016-Jun-23 10:31N 45°14' W 074°13'10910.9
2016-Jun-23 00:32N 44°11' W 076°19'0 0.1
2016-Jun-22 23:34N 44°11' W 076°19'1 0.8
2016-Jun-22 22:34N 44°11' W 076°19'0 0.5
2016-Jun-22 21:34N 44°11' W 076°19'0 0.4
2016-Jun-22 20:34N 44°11' W 076°19'7 7.1
2016-Jun-22 19:34N 44°06' W 076°24'13111.6
2016-Jun-22 08:21N 43°16' W 079°11'4 4.5
2016-Jun-22 07:34N 43°13' W 079°13'53 3.5
2016-Jun-21 16:33N 42°29' W 079°53'1212.0
2016-Jun-21 15:33N 42°24' W 080°08'  

Dump ship's entire track history